Groton City, New York
Current Conditions -  °F | °C
As of 4:56 PM on Tuesday 21 Oct 2014 (Local Time) from KITH Reporting Station
Overcast Overcast  
Wind Chill: 53°   Ceiling: 2200
Heat Index: 53°   Visibility: 10mi
Dew Point: 49°   Wind: 6mph
Humidity: 86%   Direction: 320°NW
Pressure: 29.89"   Gusts: NA
Location:  42.5874°N, 76.3904°W
Report Text: KITH 212056Z 32005KT 10SM BKN022 OVC047 12/09 A2989 RMK AO2 53009 T01160094 SLP126
Loading
Personal Weather Stations






























Interactive Weather Map
Tropical Storm Tracking
New forecast layout! Learn more

10-Day Weather Forecast

Advertisements
Track Severe Weather on mobile